Terminal Aerodrome Forecast
Issued by NWS Greer, SC

Current Version | Previous Version | Text Only | Print | Product List | Glossary On
Versions: 1 2 3 4 5 6 7 8 9 10 11 12 13 14 15 16 17
000
FTUS42 KGSP 281039 AAA
TAFAVL
TAF AMD
KAVL 281039Z 2811/2906 31004KT P6SM SCT080
     FM281500 20005KT P6SM FEW040
     FM281800 20009KT P6SM BKN045 PROB30 2820/2824 4SM -TSRA
      OVC025CB
     FM290500 30007KT P6SM SCT040=

USA.gov is the U.S. government's official web portal to all federal, state and local government web resources and services.